KTPA/TPA METAR and TAF weather

Enter ICAO airport designator
Station Type Date Time Source
KTPA METAR 2020/12/05 05:53 UTC NOAA

KTPA 050553Z 17004KT 10SM SCT026 BKN200 20/17 A3005 RMK AO2 SLP174 T02000167 10217 20194 58013


Station Type Date Time Source
KTPA Decoded METAR 2020/12/05 05:53 UTC NOAA

TAMPA INTERNATIONAL AIRPORT , FL, United States (KTPA) 27-58N 082-32W 11M
Dec 05, 2020 - 12:53 AM EST / 2020.12.05 0553 UTC
Wind: from the S (170 degrees) at 5 MPH (4 KT):0
Visibility: 10 mile(s):0
Sky conditions: mostly cloudy
Temperature: 68.0 F (20.0 C)
Dew Point: 62.1 F (16.7 C)
Relative Humidity: 81%
Pressure (altimeter): 30.05 in. Hg (1017 hPa)
Pressure tendency: 0.04 inches (1.3 hPa) lower than three hours ago
ob: KTPA 050553Z 17004KT 10SM SCT026 BKN200 20/17 A3005 RMK AO2 SLP174 T02000167 10217 20194 58013
cycle: 6

Station Type Date Time Source
KTPA TAF 2020/12/05 06:36 UTC NOAA

TAF KTPA 050533Z 0506/0612 19005KT P6SM BKN040
FM050900 28006KT P6SM VCSH BKN010
FM051200 35007KT P6SM BKN008
FM051500 36009KT P6SM BKN035
FM060900 03004KT P6SM FEW200

Example: see airport list